sensor_id;sensor_type;location;lat;lon;timestamp;P1;durP1;ratioP1;P2;durP2;ratioP2
85837;SDS011;76313;47.180;19.778;2024-03-06T00:00:45;3.80;;;2.67;;
85837;SDS011;76313;47.180;19.778;2024-03-06T00:03:10;3.72;;;2.75;;
85837;SDS011;76313;47.180;19.778;2024-03-06T00:05:36;3.97;;;2.70;;
85837;SDS011;76313;47.180;19.778;2024-03-06T00:08:01;3.67;;;2.30;;
85837;SDS011;76313;47.180;19.778;2024-03-06T00:10:28;2.38;;;1.20;;
85837;SDS011;76313;47.180;19.778;2024-03-06T00:12:54;3.83;;;2.55;;
85837;SDS011;76313;47.180;19.778;2024-03-06T00:15:20;3.70;;;2.65;;
85837;SDS011;76313;47.180;19.778;2024-03-06T00:17:46;3.45;;;1.63;;
85837;SDS011;76313;47.180;19.778;2024-03-06T00:20:11;2.95;;;1.52;;
85837;SDS011;76313;47.180;19.778;2024-03-06T00:22:37;3.45;;;2.60;;
85837;SDS011;76313;47.180;19.778;2024-03-06T00:25:02;3.03;;;1.63;;
85837;SDS011;76313;47.180;19.778;2024-03-06T00:27:28;3.58;;;2.67;;
85837;SDS011;76313;47.180;19.778;2024-03-06T00:30:12;3.85;;;2.65;;
85837;SDS011;76313;47.180;19.778;2024-03-06T00:32:38;4.00;;;3.00;;
85837;SDS011;76313;47.180;19.778;2024-03-06T00:35:03;3.40;;;2.45;;
85837;SDS011;76313;47.180;19.778;2024-03-06T00:37:29;3.70;;;2.40;;
85837;SDS011;76313;47.180;19.778;2024-03-06T00:39:55;4.00;;;2.97;;
85837;SDS011;76313;47.180;19.778;2024-03-06T00:42:20;3.88;;;2.55;;
85837;SDS011;76313;47.180;19.778;2024-03-06T00:44:46;3.47;;;2.47;;
85837;SDS011;76313;47.180;19.778;2024-03-06T00:47:12;3.95;;;2.75;;
85837;SDS011;76313;47.180;19.778;2024-03-06T00:49:37;3.33;;;1.77;;
85837;SDS011;76313;47.180;19.778;2024-03-06T00:52:04;3.80;;;2.95;;
85837;SDS011;76313;47.180;19.778;2024-03-06T00:54:29;3.40;;;2.20;;
85837;SDS011;76313;47.180;19.778;2024-03-06T00:56:55;3.95;;;2.75;;
85837;SDS011;76313;47.180;19.778;2024-03-06T00:59:22;4.03;;;2.42;;
85837;SDS011;76313;47.180;19.778;2024-03-06T01:01:48;3.78;;;2.85;;
85837;SDS011;76313;47.180;19.778;2024-03-06T01:04:13;1.85;;;1.02;;
85837;SDS011;76313;47.180;19.778;2024-03-06T01:06:39;3.65;;;2.45;;
85837;SDS011;76313;47.180;19.778;2024-03-06T01:09:05;2.78;;;1.55;;
85837;SDS011;76313;47.180;19.778;2024-03-06T01:11:30;3.33;;;2.03;;
85837;SDS011;76313;47.180;19.778;2024-03-06T01:13:56;2.75;;;1.35;;
85837;SDS011;76313;47.180;19.778;2024-03-06T01:16:21;3.58;;;2.22;;
85837;SDS011;76313;47.180;19.778;2024-03-06T01:18:47;3.65;;;2.75;;
85837;SDS011;76313;47.180;19.778;2024-03-06T01:21:13;3.65;;;2.75;;
85837;SDS011;76313;47.180;19.778;2024-03-06T01:23:38;3.35;;;2.38;;
85837;SDS011;76313;47.180;19.778;2024-03-06T01:26:04;2.42;;;1.33;;
85837;SDS011;76313;47.180;19.778;2024-03-06T01:28:29;3.50;;;2.42;;
85837;SDS011;76313;47.180;19.778;2024-03-06T01:30:55;3.85;;;2.83;;
85837;SDS011;76313;47.180;19.778;2024-03-06T01:33:20;3.58;;;2.33;;
85837;SDS011;76313;47.180;19.778;2024-03-06T01:35:46;3.80;;;2.63;;
85837;SDS011;76313;47.180;19.778;2024-03-06T01:38:12;3.78;;;2.55;;
85837;SDS011;76313;47.180;19.778;2024-03-06T01:40:42;2.53;;;1.50;;
85837;SDS011;76313;47.180;19.778;2024-03-06T01:43:16;3.70;;;2.58;;
85837;SDS011;76313;47.180;19.778;2024-03-06T01:45:47;3.65;;;2.65;;
85837;SDS011;76313;47.180;19.778;2024-03-06T01:48:13;3.50;;;2.33;;
85837;SDS011;76313;47.180;19.778;2024-03-06T01:50:39;2.53;;;1.48;;
85837;SDS011;76313;47.180;19.778;2024-03-06T01:53:05;2.50;;;1.35;;
85837;SDS011;76313;47.180;19.778;2024-03-06T01:55:31;3.55;;;2.50;;
85837;SDS011;76313;47.180;19.778;2024-03-06T01:57:56;4.07;;;3.47;;
85837;SDS011;76313;47.180;19.778;2024-03-06T02:00:22;3.53;;;2.30;;
85837;SDS011;76313;47.180;19.778;2024-03-06T02:02:48;3.60;;;2.60;;
85837;SDS011;76313;47.180;19.778;2024-03-06T02:05:14;3.65;;;2.65;;
85837;SDS011;76313;47.180;19.778;2024-03-06T02:07:39;3.90;;;3.13;;
85837;SDS011;76313;47.180;19.778;2024-03-06T02:10:06;3.20;;;2.40;;
85837;SDS011;76313;47.180;19.778;2024-03-06T02:12:35;3.60;;;2.40;;
85837;SDS011;76313;47.180;19.778;2024-03-06T02:15:01;2.42;;;1.35;;
85837;SDS011;76313;47.180;19.778;2024-03-06T02:17:28;3.53;;;2.63;;
85837;SDS011;76313;47.180;19.778;2024-03-06T02:19:55;3.85;;;2.50;;
85837;SDS011;76313;47.180;19.778;2024-03-06T02:22:22;3.78;;;2.67;;
85837;SDS011;76313;47.180;19.778;2024-03-06T02:24:48;3.78;;;2.78;;
85837;SDS011;76313;47.180;19.778;2024-03-06T02:27:14;2.63;;;1.48;;
85837;SDS011;76313;47.180;19.778;2024-03-06T02:29:41;3.72;;;2.92;;
85837;SDS011;76313;47.180;19.778;2024-03-06T02:32:07;3.42;;;2.63;;
85837;SDS011;76313;47.180;19.778;2024-03-06T02:34:33;3.80;;;2.85;;
85837;SDS011;76313;47.180;19.778;2024-03-06T02:36:59;3.67;;;2.58;;
85837;SDS011;76313;47.180;19.778;2024-03-06T02:39:24;3.70;;;2.53;;
85837;SDS011;76313;47.180;19.778;2024-03-06T02:41:50;3.45;;;2.50;;
85837;SDS011;76313;47.180;19.778;2024-03-06T02:44:15;3.05;;;2.10;;
85837;SDS011;76313;47.180;19.778;2024-03-06T02:46:46;3.30;;;2.38;;
85837;SDS011;76313;47.180;19.778;2024-03-06T02:49:13;2.72;;;1.88;;
85837;SDS011;76313;47.180;19.778;2024-03-06T02:51:39;3.50;;;2.75;;
85837;SDS011;76313;47.180;19.778;2024-03-06T02:54:04;3.33;;;2.20;;
85837;SDS011;76313;47.180;19.778;2024-03-06T02:56:30;3.58;;;2.63;;
85837;SDS011;76313;47.180;19.778;2024-03-06T02:58:55;3.40;;;2.22;;
85837;SDS011;76313;47.180;19.778;2024-03-06T03:01:21;3.33;;;2.35;;
85837;SDS011;76313;47.180;19.778;2024-03-06T03:03:47;3.10;;;1.98;;
85837;SDS011;76313;47.180;19.778;2024-03-06T03:06:12;3.33;;;2.20;;
85837;SDS011;76313;47.180;19.778;2024-03-06T03:08:38;3.28;;;2.08;;
85837;SDS011;76313;47.180;19.778;2024-03-06T03:11:05;3.20;;;2.40;;
85837;SDS011;76313;47.180;19.778;2024-03-06T03:13:30;3.53;;;2.35;;
85837;SDS011;76313;47.180;19.778;2024-03-06T03:15:56;3.13;;;2.00;;
85837;SDS011;76313;47.180;19.778;2024-03-06T03:18:22;3.30;;;2.35;;
85837;SDS011;76313;47.180;19.778;2024-03-06T03:20:47;3.13;;;2.28;;
85837;SDS011;76313;47.180;19.778;2024-03-06T03:23:13;3.58;;;2.83;;
85837;SDS011;76313;47.180;19.778;2024-03-06T03:25:40;3.17;;;2.22;;
85837;SDS011;76313;47.180;19.778;2024-03-06T03:28:06;3.17;;;2.10;;
85837;SDS011;76313;47.180;19.778;2024-03-06T03:30:32;3.70;;;2.75;;
85837;SDS011;76313;47.180;19.778;2024-03-06T03:32:57;3.53;;;2.45;;
85837;SDS011;76313;47.180;19.778;2024-03-06T03:35:23;2.65;;;1.35;;
85837;SDS011;76313;47.180;19.778;2024-03-06T03:37:53;3.58;;;2.53;;
85837;SDS011;76313;47.180;19.778;2024-03-06T03:40:19;3.45;;;2.35;;
85837;SDS011;76313;47.180;19.778;2024-03-06T03:42:44;3.55;;;2.28;;
85837;SDS011;76313;47.180;19.778;2024-03-06T03:45:10;3.45;;;2.40;;
85837;SDS011;76313;47.180;19.778;2024-03-06T03:47:35;3.53;;;2.20;;
85837;SDS011;76313;47.180;19.778;2024-03-06T03:50:02;3.70;;;2.60;;
85837;SDS011;76313;47.180;19.778;2024-03-06T03:52:27;3.47;;;2.20;;
85837;SDS011;76313;47.180;19.778;2024-03-06T03:54:54;3.15;;;2.33;;
85837;SDS011;76313;47.180;19.778;2024-03-06T03:57:20;3.50;;;2.47;;
85837;SDS011;76313;47.180;19.778;2024-03-06T03:59:45;3.83;;;2.72;;
85837;SDS011;76313;47.180;19.778;2024-03-06T04:02:11;2.95;;;1.95;;
85837;SDS011;76313;47.180;19.778;2024-03-06T04:04:37;3.67;;;2.53;;
85837;SDS011;76313;47.180;19.778;2024-03-06T04:07:02;3.85;;;3.25;;
85837;SDS011;76313;47.180;19.778;2024-03-06T04:09:28;3.75;;;2.42;;
85837;SDS011;76313;47.180;19.778;2024-03-06T04:11:54;3.72;;;2.30;;
85837;SDS011;76313;47.180;19.778;2024-03-06T04:14:19;3.80;;;2.70;;
85837;SDS011;76313;47.180;19.778;2024-03-06T04:16:48;3.65;;;2.65;;
85837;SDS011;76313;47.180;19.778;2024-03-06T04:19:13;3.25;;;2.30;;
85837;SDS011;76313;47.180;19.778;2024-03-06T04:21:42;3.65;;;2.60;;
85837;SDS011;76313;47.180;19.778;2024-03-06T04:24:08;3.60;;;2.28;;
85837;SDS011;76313;47.180;19.778;2024-03-06T04:26:33;3.80;;;2.55;;
85837;SDS011;76313;47.180;19.778;2024-03-06T04:28:59;2.47;;;1.65;;
85837;SDS011;76313;47.180;19.778;2024-03-06T04:31:24;4.00;;;2.28;;
85837;SDS011;76313;47.180;19.778;2024-03-06T04:33:50;3.50;;;2.38;;
85837;SDS011;76313;47.180;19.778;2024-03-06T04:36:16;3.38;;;2.38;;
85837;SDS011;76313;47.180;19.778;2024-03-06T04:38:42;3.10;;;2.03;;
85837;SDS011;76313;47.180;19.778;2024-03-06T04:41:07;3.53;;;2.70;;
85837;SDS011;76313;47.180;19.778;2024-03-06T04:43:33;3.08;;;1.90;;
85837;SDS011;76313;47.180;19.778;2024-03-06T04:45:59;3.88;;;2.67;;
85837;SDS011;76313;47.180;19.778;2024-03-06T04:48:24;3.65;;;2.78;;
85837;SDS011;76313;47.180;19.778;2024-03-06T04:50:50;3.60;;;2.40;;
85837;SDS011;76313;47.180;19.778;2024-03-06T04:53:16;4.00;;;2.70;;
85837;SDS011;76313;47.180;19.778;2024-03-06T04:55:41;2.65;;;1.55;;
85837;SDS011;76313;47.180;19.778;2024-03-06T04:58:07;3.63;;;2.50;;
85837;SDS011;76313;47.180;19.778;2024-03-06T05:00:33;3.35;;;2.28;;
85837;SDS011;76313;47.180;19.778;2024-03-06T05:02:59;3.50;;;2.20;;
85837;SDS011;76313;47.180;19.778;2024-03-06T05:05:24;3.58;;;2.53;;
85837;SDS011;76313;47.180;19.778;2024-03-06T05:07:50;3.40;;;2.08;;
85837;SDS011;76313;47.180;19.778;2024-03-06T05:10:16;2.72;;;1.40;;
85837;SDS011;76313;47.180;19.778;2024-03-06T05:12:42;4.18;;;2.92;;
85837;SDS011;76313;47.180;19.778;2024-03-06T05:15:08;3.70;;;3.08;;
85837;SDS011;76313;47.180;19.778;2024-03-06T05:17:34;3.88;;;2.75;;
85837;SDS011;76313;47.180;19.778;2024-03-06T05:20:00;3.78;;;2.47;;
85837;SDS011;76313;47.180;19.778;2024-03-06T05:22:25;2.67;;;1.65;;
85837;SDS011;76313;47.180;19.778;2024-03-06T05:24:51;4.00;;;2.75;;
85837;SDS011;76313;47.180;19.778;2024-03-06T05:27:17;4.10;;;2.72;;
85837;SDS011;76313;47.180;19.778;2024-03-06T05:29:43;3.53;;;2.25;;
85837;SDS011;76313;47.180;19.778;2024-03-06T05:32:09;3.50;;;2.45;;
85837;SDS011;76313;47.180;19.778;2024-03-06T05:34:35;3.97;;;2.85;;
85837;SDS011;76313;47.180;19.778;2024-03-06T05:37:00;3.85;;;2.38;;
85837;SDS011;76313;47.180;19.778;2024-03-06T05:39:29;3.97;;;2.97;;
85837;SDS011;76313;47.180;19.778;2024-03-06T05:41:55;3.83;;;2.92;;
85837;SDS011;76313;47.180;19.778;2024-03-06T05:44:20;4.00;;;3.30;;
85837;SDS011;76313;47.180;19.778;2024-03-06T05:46:46;3.72;;;2.72;;
85837;SDS011;76313;47.180;19.778;2024-03-06T05:49:12;4.15;;;2.47;;
85837;SDS011;76313;47.180;19.778;2024-03-06T05:51:39;4.18;;;3.33;;
85837;SDS011;76313;47.180;19.778;2024-03-06T05:54:04;4.10;;;3.03;;
85837;SDS011;76313;47.180;19.778;2024-03-06T05:56:33;3.83;;;2.70;;
85837;SDS011;76313;47.180;19.778;2024-03-06T05:58:59;4.00;;;3.30;;
85837;SDS011;76313;47.180;19.778;2024-03-06T06:01:29;2.60;;;1.25;;
85837;SDS011;76313;47.180;19.778;2024-03-06T06:03:55;4.30;;;3.47;;
85837;SDS011;76313;47.180;19.778;2024-03-06T06:06:21;3.75;;;2.60;;
85837;SDS011;76313;47.180;19.778;2024-03-06T06:08:47;3.03;;;1.67;;
85837;SDS011;76313;47.180;19.778;2024-03-06T06:11:13;4.00;;;2.97;;
85837;SDS011;76313;47.180;19.778;2024-03-06T06:13:39;3.38;;;2.50;;
85837;SDS011;76313;47.180;19.778;2024-03-06T06:16:04;3.88;;;2.53;;
85837;SDS011;76313;47.180;19.778;2024-03-06T06:18:30;4.10;;;2.90;;
85837;SDS011;76313;47.180;19.778;2024-03-06T06:20:57;4.00;;;2.90;;
85837;SDS011;76313;47.180;19.778;2024-03-06T06:23:23;3.85;;;2.72;;
85837;SDS011;76313;47.180;19.778;2024-03-06T06:25:48;4.00;;;3.13;;
85837;SDS011;76313;47.180;19.778;2024-03-06T06:28:14;3.90;;;2.97;;
85837;SDS011;76313;47.180;19.778;2024-03-06T06:30:39;3.92;;;3.28;;
85837;SDS011;76313;47.180;19.778;2024-03-06T06:33:05;3.65;;;2.65;;
85837;SDS011;76313;47.180;19.778;2024-03-06T06:35:31;3.95;;;3.03;;
85837;SDS011;76313;47.180;19.778;2024-03-06T06:37:56;4.63;;;3.17;;
85837;SDS011;76313;47.180;19.778;2024-03-06T06:40:22;4.28;;;3.15;;
85837;SDS011;76313;47.180;19.778;2024-03-06T06:42:48;4.40;;;3.22;;
85837;SDS011;76313;47.180;19.778;2024-03-06T06:45:17;3.83;;;2.58;;
85837;SDS011;76313;47.180;19.778;2024-03-06T06:48:02;3.92;;;2.78;;
85837;SDS011;76313;47.180;19.778;2024-03-06T06:50:28;4.10;;;2.90;;
85837;SDS011;76313;47.180;19.778;2024-03-06T06:52:53;4.03;;;2.65;;
85837;SDS011;76313;47.180;19.778;2024-03-06T06:55:19;3.88;;;2.33;;
85837;SDS011;76313;47.180;19.778;2024-03-06T06:57:48;3.17;;;1.42;;
85837;SDS011;76313;47.180;19.778;2024-03-06T07:00:14;3.80;;;2.42;;
85837;SDS011;76313;47.180;19.778;2024-03-06T07:02:43;3.58;;;1.98;;
85837;SDS011;76313;47.180;19.778;2024-03-06T07:05:10;3.60;;;2.38;;
85837;SDS011;76313;47.180;19.778;2024-03-06T07:07:36;3.70;;;2.47;;
85837;SDS011;76313;47.180;19.778;2024-03-06T07:10:02;3.55;;;2.63;;
85837;SDS011;76313;47.180;19.778;2024-03-06T07:12:28;3.10;;;1.90;;
85837;SDS011;76313;47.180;19.778;2024-03-06T07:14:54;3.67;;;2.50;;
85837;SDS011;76313;47.180;19.778;2024-03-06T07:17:19;4.38;;;2.50;;
85837;SDS011;76313;47.180;19.778;2024-03-06T07:19:45;3.83;;;2.22;;
85837;SDS011;76313;47.180;19.778;2024-03-06T07:22:10;3.28;;;2.35;;
85837;SDS011;76313;47.180;19.778;2024-03-06T07:24:36;3.70;;;2.38;;
85837;SDS011;76313;47.180;19.778;2024-03-06T07:27:02;3.20;;;1.95;;
85837;SDS011;76313;47.180;19.778;2024-03-06T07:29:28;3.45;;;1.55;;
85837;SDS011;76313;47.180;19.778;2024-03-06T07:31:53;3.30;;;1.80;;
85837;SDS011;76313;47.180;19.778;2024-03-06T07:34:19;3.35;;;1.90;;
85837;SDS011;76313;47.180;19.778;2024-03-06T07:36:46;2.88;;;1.80;;
85837;SDS011;76313;47.180;19.778;2024-03-06T07:39:12;2.30;;;0.93;;
85837;SDS011;76313;47.180;19.778;2024-03-06T07:41:40;3.15;;;2.33;;
85837;SDS011;76313;47.180;19.778;2024-03-06T07:44:06;2.53;;;1.50;;
85837;SDS011;76313;47.180;19.778;2024-03-06T07:46:32;2.90;;;1.77;;
85837;SDS011;76313;47.180;19.778;2024-03-06T07:48:57;2.60;;;1.50;;
85837;SDS011;76313;47.180;19.778;2024-03-06T07:51:23;2.70;;;1.63;;
85837;SDS011;76313;47.180;19.778;2024-03-06T07:53:48;2.65;;;1.55;;
85837;SDS011;76313;47.180;19.778;2024-03-06T07:56:15;2.67;;;1.50;;
85837;SDS011;76313;47.180;19.778;2024-03-06T07:58:41;2.72;;;1.60;;
85837;SDS011;76313;47.180;19.778;2024-03-06T08:01:06;2.75;;;1.88;;
85837;SDS011;76313;47.180;19.778;2024-03-06T08:03:32;2.75;;;1.63;;
85837;SDS011;76313;47.180;19.778;2024-03-06T08:05:59;1.63;;;0.82;;
85837;SDS011;76313;47.180;19.778;2024-03-06T08:08:24;1.40;;;0.77;;
85837;SDS011;76313;47.180;19.778;2024-03-06T08:10:50;2.03;;;0.98;;
85837;SDS011;76313;47.180;19.778;2024-03-06T08:13:16;2.80;;;2.28;;
85837;SDS011;76313;47.180;19.778;2024-03-06T08:15:42;2.17;;;1.17;;
85837;SDS011;76313;47.180;19.778;2024-03-06T08:18:09;3.08;;;1.75;;
85837;SDS011;76313;47.180;19.778;2024-03-06T08:20:35;1.48;;;0.70;;
85837;SDS011;76313;47.180;19.778;2024-03-06T08:23:00;1.63;;;0.80;;
85837;SDS011;76313;47.180;19.778;2024-03-06T08:25:26;2.40;;;1.50;;
85837;SDS011;76313;47.180;19.778;2024-03-06T08:27:52;2.55;;;1.52;;
85837;SDS011;76313;47.180;19.778;2024-03-06T08:30:17;2.72;;;1.63;;
85837;SDS011;76313;47.180;19.778;2024-03-06T08:32:42;2.78;;;1.60;;
85837;SDS011;76313;47.180;19.778;2024-03-06T08:35:09;1.50;;;0.80;;
85837;SDS011;76313;47.180;19.778;2024-03-06T08:37:36;2.45;;;1.30;;
85837;SDS011;76313;47.180;19.778;2024-03-06T08:40:06;2.10;;;1.00;;
85837;SDS011;76313;47.180;19.778;2024-03-06T08:42:42;1.25;;;0.70;;
85837;SDS011;76313;47.180;19.778;2024-03-06T08:45:14;2.53;;;1.63;;
85837;SDS011;76313;47.180;19.778;2024-03-06T08:47:40;2.08;;;1.20;;
85837;SDS011;76313;47.180;19.778;2024-03-06T08:50:07;2.20;;;1.38;;
85837;SDS011;76313;47.180;19.778;2024-03-06T08:52:33;1.63;;;0.90;;
85837;SDS011;76313;47.180;19.778;2024-03-06T08:54:59;1.02;;;0.70;;
85837;SDS011;76313;47.180;19.778;2024-03-06T08:57:25;2.60;;;1.70;;
85837;SDS011;76313;47.180;19.778;2024-03-06T08:59:53;1.45;;;0.85;;
85837;SDS011;76313;47.180;19.778;2024-03-06T09:02:19;2.58;;;1.50;;
85837;SDS011;76313;47.180;19.778;2024-03-06T09:04:45;1.33;;;0.73;;
85837;SDS011;76313;47.180;19.778;2024-03-06T09:07:11;1.30;;;0.82;;
85837;SDS011;76313;47.180;19.778;2024-03-06T09:09:38;2.72;;;1.60;;
85837;SDS011;76313;47.180;19.778;2024-03-06T09:12:07;2.67;;;1.73;;
85837;SDS011;76313;47.180;19.778;2024-03-06T09:14:35;2.78;;;1.48;;
85837;SDS011;76313;47.180;19.778;2024-03-06T09:17:02;2.35;;;1.42;;
85837;SDS011;76313;47.180;19.778;2024-03-06T09:19:28;2.47;;;1.48;;
85837;SDS011;76313;47.180;19.778;2024-03-06T09:21:53;1.27;;;0.73;;
85837;SDS011;76313;47.180;19.778;2024-03-06T09:24:20;1.48;;;0.85;;
85837;SDS011;76313;47.180;19.778;2024-03-06T09:26:47;2.25;;;1.35;;
85837;SDS011;76313;47.180;19.778;2024-03-06T09:29:13;2.20;;;1.25;;
85837;SDS011;76313;47.180;19.778;2024-03-06T09:31:38;2.53;;;1.55;;
85837;SDS011;76313;47.180;19.778;2024-03-06T09:34:04;2.97;;;1.40;;
85837;SDS011;76313;47.180;19.778;2024-03-06T09:36:29;2.35;;;1.45;;
85837;SDS011;76313;47.180;19.778;2024-03-06T09:38:55;2.30;;;1.77;;
85837;SDS011;76313;47.180;19.778;2024-03-06T09:41:21;1.95;;;1.10;;
85837;SDS011;76313;47.180;19.778;2024-03-06T09:43:49;1.52;;;0.82;;
85837;SDS011;76313;47.180;19.778;2024-03-06T09:46:15;2.30;;;1.30;;
85837;SDS011;76313;47.180;19.778;2024-03-06T09:48:44;0.93;;;0.60;;
85837;SDS011;76313;47.180;19.778;2024-03-06T09:51:11;1.25;;;0.77;;
85837;SDS011;76313;47.180;19.778;2024-03-06T09:53:37;0.93;;;0.55;;
85837;SDS011;76313;47.180;19.778;2024-03-06T09:56:04;1.13;;;0.70;;
85837;SDS011;76313;47.180;19.778;2024-03-06T09:58:30;1.00;;;0.60;;
85837;SDS011;76313;47.180;19.778;2024-03-06T10:00:58;2.35;;;1.25;;
85837;SDS011;76313;47.180;19.778;2024-03-06T10:03:25;1.35;;;0.70;;
85837;SDS011;76313;47.180;19.778;2024-03-06T10:05:51;2.47;;;1.42;;
85837;SDS011;76313;47.180;19.778;2024-03-06T10:08:16;0.98;;;0.55;;
85837;SDS011;76313;47.180;19.778;2024-03-06T10:10:42;2.13;;;1.33;;
85837;SDS011;76313;47.180;19.778;2024-03-06T10:13:08;1.05;;;0.57;;
85837;SDS011;76313;47.180;19.778;2024-03-06T10:15:34;1.95;;;1.08;;
85837;SDS011;76313;47.180;19.778;2024-03-06T10:18:11;1.50;;;0.60;;
85837;SDS011;76313;47.180;19.778;2024-03-06T10:20:38;1.15;;;0.55;;
85837;SDS011;76313;47.180;19.778;2024-03-06T10:23:03;1.35;;;0.90;;
85837;SDS011;76313;47.180;19.778;2024-03-06T10:25:29;1.02;;;0.52;;
85837;SDS011;76313;47.180;19.778;2024-03-06T10:28:04;1.95;;;1.25;;
85837;SDS011;76313;47.180;19.778;2024-03-06T10:30:37;0.70;;;0.50;;
85837;SDS011;76313;47.180;19.778;2024-03-06T10:33:07;1.95;;;1.15;;
85837;SDS011;76313;47.180;19.778;2024-03-06T10:35:33;1.00;;;0.60;;
85837;SDS011;76313;47.180;19.778;2024-03-06T10:38:00;2.05;;;1.45;;
85837;SDS011;76313;47.180;19.778;2024-03-06T10:42:57;1.20;;;0.57;;
85837;SDS011;76313;47.180;19.778;2024-03-06T10:45:24;0.80;;;0.50;;
85837;SDS011;76313;47.180;19.778;2024-03-06T10:47:58;0.80;;;0.43;;
85837;SDS011;76313;47.180;19.778;2024-03-06T10:50:24;2.30;;;1.33;;
85837;SDS011;76313;47.180;19.778;2024-03-06T10:52:50;2.20;;;1.20;;
85837;SDS011;76313;47.180;19.778;2024-03-06T10:55:20;2.05;;;1.35;;
85837;SDS011;76313;47.180;19.778;2024-03-06T10:57:46;0.95;;;0.60;;
85837;SDS011;76313;47.180;19.778;2024-03-06T11:00:14;1.15;;;0.70;;
85837;SDS011;76313;47.180;19.778;2024-03-06T11:02:45;0.90;;;0.50;;
85837;SDS011;76313;47.180;19.778;2024-03-06T11:05:13;2.10;;;1.33;;
85837;SDS011;76313;47.180;19.778;2024-03-06T11:07:39;2.33;;;1.38;;
85837;SDS011;76313;47.180;19.778;2024-03-06T11:10:05;1.35;;;0.60;;
85837;SDS011;76313;47.180;19.778;2024-03-06T11:12:38;2.20;;;1.23;;
85837;SDS011;76313;47.180;19.778;2024-03-06T11:15:13;1.73;;;1.23;;
85837;SDS011;76313;47.180;19.778;2024-03-06T11:17:39;2.65;;;1.17;;
85837;SDS011;76313;47.180;19.778;2024-03-06T11:28:23;0.85;;;0.45;;
85837;SDS011;76313;47.180;19.778;2024-03-06T11:30:55;2.33;;;1.27;;
85837;SDS011;76313;47.180;19.778;2024-03-06T11:33:34;1.15;;;0.55;;
85837;SDS011;76313;47.180;19.778;2024-03-06T11:38:52;1.95;;;1.08;;
85837;SDS011;76313;47.180;19.778;2024-03-06T11:41:22;1.20;;;0.60;;
85837;SDS011;76313;47.180;19.778;2024-03-06T11:46:15;1.77;;;1.00;;
85837;SDS011;76313;47.180;19.778;2024-03-06T11:48:42;1.88;;;1.15;;
85837;SDS011;76313;47.180;19.778;2024-03-06T11:51:08;2.15;;;1.77;;
85837;SDS011;76313;47.180;19.778;2024-03-06T11:53:34;1.20;;;0.57;;
85837;SDS011;76313;47.180;19.778;2024-03-06T11:56:07;2.13;;;1.35;;
85837;SDS011;76313;47.180;19.778;2024-03-06T11:58:33;1.20;;;0.55;;
85837;SDS011;76313;47.180;19.778;2024-03-06T12:00:59;2.33;;;1.20;;
85837;SDS011;76313;47.180;19.778;2024-03-06T12:03:26;0.95;;;0.57;;
85837;SDS011;76313;47.180;19.778;2024-03-06T12:05:52;2.33;;;1.23;;
85837;SDS011;76313;47.180;19.778;2024-03-06T12:08:18;0.55;;;0.40;;
85837;SDS011;76313;47.180;19.778;2024-03-06T12:10:47;2.03;;;1.17;;
85837;SDS011;76313;47.180;19.778;2024-03-06T12:13:12;2.00;;;1.23;;
85837;SDS011;76313;47.180;19.778;2024-03-06T12:15:38;0.93;;;0.50;;
85837;SDS011;76313;47.180;19.778;2024-03-06T12:18:08;2.08;;;1.27;;
85837;SDS011;76313;47.180;19.778;2024-03-06T12:20:33;1.65;;;1.02;;
85837;SDS011;76313;47.180;19.778;2024-03-06T12:22:59;0.85;;;0.60;;
85837;SDS011;76313;47.180;19.778;2024-03-06T12:25:25;0.95;;;0.50;;
85837;SDS011;76313;47.180;19.778;2024-03-06T12:27:52;2.25;;;1.20;;
85837;SDS011;76313;47.180;19.778;2024-03-06T12:30:20;2.30;;;1.30;;
85837;SDS011;76313;47.180;19.778;2024-03-06T12:32:59;2.53;;;1.58;;
85837;SDS011;76313;47.180;19.778;2024-03-06T12:35:29;1.85;;;1.15;;
85837;SDS011;76313;47.180;19.778;2024-03-06T12:37:55;0.90;;;0.77;;
85837;SDS011;76313;47.180;19.778;2024-03-06T12:40:20;0.60;;;0.47;;
85837;SDS011;76313;47.180;19.778;2024-03-06T12:42:46;2.67;;;1.40;;
85837;SDS011;76313;47.180;19.778;2024-03-06T12:45:12;2.28;;;1.27;;
85837;SDS011;76313;47.180;19.778;2024-03-06T12:47:45;1.27;;;0.60;;
85837;SDS011;76313;47.180;19.778;2024-03-06T12:50:13;2.28;;;1.67;;
85837;SDS011;76313;47.180;19.778;2024-03-06T12:52:38;2.00;;;1.25;;
85837;SDS011;76313;47.180;19.778;2024-03-06T12:55:04;0.50;;;0.40;;
85837;SDS011;76313;47.180;19.778;2024-03-06T12:57:33;2.00;;;1.27;;
85837;SDS011;76313;47.180;19.778;2024-03-06T12:59:58;1.05;;;0.52;;
85837;SDS011;76313;47.180;19.778;2024-03-06T13:02:24;1.13;;;0.60;;
85837;SDS011;76313;47.180;19.778;2024-03-06T13:04:50;1.95;;;1.08;;
85837;SDS011;76313;47.180;19.778;2024-03-06T13:07:16;1.73;;;1.02;;
85837;SDS011;76313;47.180;19.778;2024-03-06T13:09:41;1.02;;;0.60;;
85837;SDS011;76313;47.180;19.778;2024-03-06T13:12:07;1.13;;;0.60;;
85837;SDS011;76313;47.180;19.778;2024-03-06T13:14:32;1.15;;;0.75;;
85837;SDS011;76313;47.180;19.778;2024-03-06T13:16:59;0.80;;;0.50;;
85837;SDS011;76313;47.180;19.778;2024-03-06T13:19:25;1.90;;;1.08;;
85837;SDS011;76313;47.180;19.778;2024-03-06T13:21:50;2.63;;;1.63;;
85837;SDS011;76313;47.180;19.778;2024-03-06T13:24:17;2.10;;;1.33;;
85837;SDS011;76313;47.180;19.778;2024-03-06T13:26:44;0.90;;;0.50;;
85837;SDS011;76313;47.180;19.778;2024-03-06T13:29:10;1.08;;;0.65;;
85837;SDS011;76313;47.180;19.778;2024-03-06T13:31:36;0.85;;;0.50;;
85837;SDS011;76313;47.180;19.778;2024-03-06T13:34:03;1.88;;;1.17;;
85837;SDS011;76313;47.180;19.778;2024-03-06T13:36:29;0.88;;;0.60;;
85837;SDS011;76313;47.180;19.778;2024-03-06T13:38:54;2.20;;;1.38;;
85837;SDS011;76313;47.180;19.778;2024-03-06T13:41:20;1.92;;;1.25;;
85837;SDS011;76313;47.180;19.778;2024-03-06T13:43:46;1.10;;;0.95;;
85837;SDS011;76313;47.180;19.778;2024-03-06T13:46:11;2.35;;;1.33;;
85837;SDS011;76313;47.180;19.778;2024-03-06T13:48:37;1.02;;;0.50;;
85837;SDS011;76313;47.180;19.778;2024-03-06T13:51:03;0.82;;;0.55;;
85837;SDS011;76313;47.180;19.778;2024-03-06T13:53:29;1.75;;;1.25;;
85837;SDS011;76313;47.180;19.778;2024-03-06T13:55:55;2.17;;;1.75;;
85837;SDS011;76313;47.180;19.778;2024-03-06T13:58:20;2.03;;;1.13;;
85837;SDS011;76313;47.180;19.778;2024-03-06T14:00:46;0.82;;;0.73;;
85837;SDS011;76313;47.180;19.778;2024-03-06T14:03:12;1.30;;;0.60;;
85837;SDS011;76313;47.180;19.778;2024-03-06T14:05:38;2.70;;;1.23;;
85837;SDS011;76313;47.180;19.778;2024-03-06T14:08:04;1.92;;;1.15;;
85837;SDS011;76313;47.180;19.778;2024-03-06T14:10:30;2.55;;;1.27;;
85837;SDS011;76313;47.180;19.778;2024-03-06T14:13:00;0.85;;;0.55;;
85837;SDS011;76313;47.180;19.778;2024-03-06T14:15:25;2.45;;;1.38;;
85837;SDS011;76313;47.180;19.778;2024-03-06T14:17:54;2.17;;;1.25;;
85837;SDS011;76313;47.180;19.778;2024-03-06T14:20:20;0.95;;;0.55;;
85837;SDS011;76313;47.180;19.778;2024-03-06T14:22:45;2.05;;;1.25;;
85837;SDS011;76313;47.180;19.778;2024-03-06T14:25:12;1.30;;;0.80;;
85837;SDS011;76313;47.180;19.778;2024-03-06T14:27:38;0.60;;;0.50;;
85837;SDS011;76313;47.180;19.778;2024-03-06T14:30:04;1.00;;;0.52;;
85837;SDS011;76313;47.180;19.778;2024-03-06T14:32:32;1.20;;;0.60;;
85837;SDS011;76313;47.180;19.778;2024-03-06T14:35:01;2.08;;;1.20;;
85837;SDS011;76313;47.180;19.778;2024-03-06T14:37:27;1.88;;;1.02;;
85837;SDS011;76313;47.180;19.778;2024-03-06T14:39:53;2.13;;;1.38;;
85837;SDS011;76313;47.180;19.778;2024-03-06T14:42:22;0.82;;;0.50;;
85837;SDS011;76313;47.180;19.778;2024-03-06T14:44:48;1.00;;;0.50;;